Destinations Isle of Man Airport

Isle of Man Airport (EGNS / IOM)

Flights to Isle of Man Airport

Flight number From ETE Dispatch
SPY-218 EHGG Groningen Airport Eelde 01:50
SPY-2262 EGFF Cardiff International Airport 01:00

Flights from Isle of Man Airport

Flight number To ETE Dispatch
SPY-219 EHGG Groningen Airport Eelde 01:35
SPY-2263 EGFF Cardiff International Airport 01:00
About

Isle of Man Airport facts

Isle of Man Airport is located in Isle Of Man at an elevation of 15.8 meters or 52 feet.

Currently, Speedy Airlines serves 4 flights to and from Isle of Man Airport.

Detailed airport info

Route map

Weather

Current weather

METAR

METAR

Metar data retrieved Sunday, 21 July 2024 at 19:25 UTC

EGNS 211850Z 19009KT 9999 -RA FEW012 SCT040 15/13 Q1010 NOSIG
Wind Temperature
9 kt 15c